Decoded Metar for KMIV (MILLVILLE in NJ, USA) (IATA:MIV) | Meteo·Mobile Aviation Weather
aviador You're here:

KMIV Decoded Metar

MILLVILLE in NJ, USA
Report Time2018-12-17 06:20:00
UTC Time2018-12-17 06:57:56
Flight Rules mvfr MVFR
Wind300° at 09 kt
W.Decomp.*RWY 32: 8.9 kt HW 1.4 kt LCW
RWY 28: 7.7 kt HW 4.6 kt RCW
W.Rank300° ranks 1
Current wind is below 300° avg. (9.0)
Visibility9999 m
Phenomena:N/A
Clouds:Broken 011 Hf
Overcast 023 Hf
Expected CloudBase > 400 ft AGL from Temp-Dew spread
Ceiling1,100 ft
Temp04°C (ISA -11)
Dew Point03°C (93% RH)
AAT-0.7°C
QNH1010 hPa
Density Alt-1,033 ft
Elevation75 ft
Report Wrong Elevation
Raw Report
KMIV 170620Z AUTO 30009KT 10SM BKN011 OVC023 04/03 A2982 RMK AO2
T00390033=

Extra information for KMIV:More info

Metar Taf Metar & Taf Last 4 Metars F.Rules Stats Wind Profile Meteogram Temp Stats Airport Information Weather charts Add Link Nearby VenuesMetar ALERT Operation Metar Decoded Social comments

AIRNAV info for KMIV